Terminal Aerodrome Forecast
Issued by NWS

Home | Current Version | Previous Version | Text Only | Print | Product List | Glossary On
Versions: 1 2 3 4 5 6 7 8 9 10 11 12 13 14
000
FTUS45 KFGZ 041120
TAFGCN
TAF
KGCN 041120Z 0412/0512 18006KT P6SM BKN100
     FM041800 21012G20KT P6SM SCT050 BKN110
      TEMPO 0420/0424 TSRA BKN045CB
     FM050200 21006KT P6SM SCT040 SCT100=

USA.gov is the U.S. government's official web portal to all federal, state and local government web resources and services.